sensor_id;sensor_type;location;lat;lon;timestamp;P1;durP1;ratioP1;P2;durP2;ratioP2
21519;SDS011;10921;53.614;9.882;2022-11-11T00:00:58;17.50;;;10.90;;
21519;SDS011;10921;53.614;9.882;2022-11-11T00:03:29;24.02;;;11.77;;
21519;SDS011;10921;53.614;9.882;2022-11-11T00:06:00;25.65;;;11.55;;
21519;SDS011;10921;53.614;9.882;2022-11-11T00:08:30;23.08;;;11.85;;
21519;SDS011;10921;53.614;9.882;2022-11-11T00:11:01;19.85;;;11.55;;
21519;SDS011;10921;53.614;9.882;2022-11-11T00:13:30;27.40;;;12.30;;
21519;SDS011;10921;53.614;9.882;2022-11-11T00:16:04;18.50;;;11.90;;
21519;SDS011;10921;53.614;9.882;2022-11-11T00:18:32;22.15;;;13.00;;
21519;SDS011;10921;53.614;9.882;2022-11-11T00:21:17;26.08;;;13.48;;
21519;SDS011;10921;53.614;9.882;2022-11-11T00:24:36;18.15;;;12.10;;
21519;SDS011;10921;53.614;9.882;2022-11-11T00:27:14;21.02;;;12.50;;
21519;SDS011;10921;53.614;9.882;2022-11-11T00:29:45;22.90;;;13.63;;
21519;SDS011;10921;53.614;9.882;2022-11-11T00:32:13;21.10;;;13.27;;
21519;SDS011;10921;53.614;9.882;2022-11-11T00:34:49;23.65;;;12.88;;
21519;SDS011;10921;53.614;9.882;2022-11-11T00:37:36;18.83;;;14.00;;
21519;SDS011;10921;53.614;9.882;2022-11-11T00:40:03;20.88;;;13.40;;
21519;SDS011;10921;53.614;9.882;2022-11-11T00:42:30;25.05;;;13.57;;
21519;SDS011;10921;53.614;9.882;2022-11-11T00:44:56;20.52;;;12.88;;
21519;SDS011;10921;53.614;9.882;2022-11-11T00:47:23;19.77;;;12.57;;
21519;SDS011;10921;53.614;9.882;2022-11-11T00:50:18;24.35;;;12.88;;
21519;SDS011;10921;53.614;9.882;2022-11-11T00:53:09;22.33;;;12.98;;
21519;SDS011;10921;53.614;9.882;2022-11-11T00:55:40;16.40;;;13.30;;
21519;SDS011;10921;53.614;9.882;2022-11-11T00:58:06;23.80;;;12.25;;
21519;SDS011;10921;53.614;9.882;2022-11-11T01:00:33;21.92;;;12.73;;
21519;SDS011;10921;53.614;9.882;2022-11-11T01:03:00;22.92;;;12.50;;
21519;SDS011;10921;53.614;9.882;2022-11-11T01:05:27;28.83;;;13.75;;
21519;SDS011;10921;53.614;9.882;2022-11-11T01:07:54;23.15;;;13.13;;
21519;SDS011;10921;53.614;9.882;2022-11-11T01:10:21;25.63;;;12.85;;
21519;SDS011;10921;53.614;9.882;2022-11-11T01:13:15;23.20;;;13.15;;
21519;SDS011;10921;53.614;9.882;2022-11-11T01:18:12;25.70;;;12.48;;
21519;SDS011;10921;53.614;9.882;2022-11-11T01:20:41;22.02;;;13.15;;
21519;SDS011;10921;53.614;9.882;2022-11-11T01:23:09;23.23;;;12.43;;
21519;SDS011;10921;53.614;9.882;2022-11-11T01:25:38;23.25;;;12.48;;
21519;SDS011;10921;53.614;9.882;2022-11-11T01:28:06;28.27;;;12.52;;
21519;SDS011;10921;53.614;9.882;2022-11-11T01:30:34;20.58;;;11.93;;
21519;SDS011;10921;53.614;9.882;2022-11-11T01:33:02;19.77;;;11.70;;
21519;SDS011;10921;53.614;9.882;2022-11-11T01:35:29;21.38;;;12.07;;
21519;SDS011;10921;53.614;9.882;2022-11-11T01:37:56;21.70;;;12.15;;
21519;SDS011;10921;53.614;9.882;2022-11-11T01:40:24;19.63;;;12.05;;
21519;SDS011;10921;53.614;9.882;2022-11-11T01:42:52;29.73;;;13.32;;
21519;SDS011;10921;53.614;9.882;2022-11-11T01:48:21;27.17;;;12.65;;
21519;SDS011;10921;53.614;9.882;2022-11-11T01:51:16;23.98;;;12.52;;
21519;SDS011;10921;53.614;9.882;2022-11-11T01:53:50;16.95;;;12.27;;
21519;SDS011;10921;53.614;9.882;2022-11-11T01:56:22;22.83;;;12.77;;
21519;SDS011;10921;53.614;9.882;2022-11-11T01:58:49;24.98;;;12.70;;
21519;SDS011;10921;53.614;9.882;2022-11-11T02:01:19;27.77;;;11.82;;
21519;SDS011;10921;53.614;9.882;2022-11-11T02:03:46;26.52;;;12.95;;
21519;SDS011;10921;53.614;9.882;2022-11-11T02:06:35;24.88;;;12.50;;
21519;SDS011;10921;53.614;9.882;2022-11-11T02:09:03;22.15;;;12.30;;
21519;SDS011;10921;53.614;9.882;2022-11-11T02:11:31;20.95;;;12.70;;
21519;SDS011;10921;53.614;9.882;2022-11-11T02:14:18;22.52;;;12.52;;
21519;SDS011;10921;53.614;9.882;2022-11-11T02:17:03;26.67;;;13.13;;
21519;SDS011;10921;53.614;9.882;2022-11-11T02:22:17;46.30;;;27.75;;
21519;SDS011;10921;53.614;9.882;2022-11-11T02:24:50;41.78;;;26.88;;
21519;SDS011;10921;53.614;9.882;2022-11-11T02:27:18;52.80;;;33.65;;
21519;SDS011;10921;53.614;9.882;2022-11-11T02:29:47;43.78;;;26.88;;
21519;SDS011;10921;53.614;9.882;2022-11-11T02:32:16;33.78;;;23.88;;
21519;SDS011;10921;53.614;9.882;2022-11-11T02:34:42;28.50;;;16.88;;
21519;SDS011;10921;53.614;9.882;2022-11-11T02:37:09;29.42;;;16.10;;
21519;SDS011;10921;53.614;9.882;2022-11-11T02:39:38;24.45;;;14.32;;
21519;SDS011;10921;53.614;9.882;2022-11-11T02:42:29;24.23;;;13.30;;
21519;SDS011;10921;53.614;9.882;2022-11-11T02:44:56;23.83;;;13.75;;
21519;SDS011;10921;53.614;9.882;2022-11-11T02:47:24;22.98;;;13.13;;
21519;SDS011;10921;53.614;9.882;2022-11-11T02:49:51;22.60;;;12.30;;
21519;SDS011;10921;53.614;9.882;2022-11-11T02:52:18;21.48;;;12.70;;
21519;SDS011;10921;53.614;9.882;2022-11-11T02:54:45;18.85;;;12.57;;
21519;SDS011;10921;53.614;9.882;2022-11-11T02:57:12;23.50;;;13.40;;
21519;SDS011;10921;53.614;9.882;2022-11-11T02:59:39;18.33;;;12.88;;
21519;SDS011;10921;53.614;9.882;2022-11-11T03:02:06;21.92;;;12.38;;
21519;SDS011;10921;53.614;9.882;2022-11-11T03:04:34;23.52;;;12.93;;
21519;SDS011;10921;53.614;9.882;2022-11-11T03:07:00;22.45;;;13.57;;
21519;SDS011;10921;53.614;9.882;2022-11-11T03:09:27;22.80;;;13.60;;
21519;SDS011;10921;53.614;9.882;2022-11-11T03:11:54;19.98;;;12.82;;
21519;SDS011;10921;53.614;9.882;2022-11-11T03:14:20;24.00;;;13.30;;
21519;SDS011;10921;53.614;9.882;2022-11-11T03:16:47;24.52;;;14.15;;
21519;SDS011;10921;53.614;9.882;2022-11-11T03:19:32;20.77;;;13.40;;
21519;SDS011;10921;53.614;9.882;2022-11-11T03:21:59;26.98;;;13.27;;
21519;SDS011;10921;53.614;9.882;2022-11-11T03:24:45;19.98;;;12.95;;
21519;SDS011;10921;53.614;9.882;2022-11-11T03:27:31;23.50;;;13.68;;
21519;SDS011;10921;53.614;9.882;2022-11-11T03:29:57;26.02;;;13.68;;
21519;SDS011;10921;53.614;9.882;2022-11-11T03:32:24;23.02;;;13.40;;
21519;SDS011;10921;53.614;9.882;2022-11-11T03:34:51;19.15;;;13.15;;
21519;SDS011;10921;53.614;9.882;2022-11-11T03:37:17;24.65;;;13.15;;
21519;SDS011;10921;53.614;9.882;2022-11-11T03:40:02;20.23;;;13.38;;
21519;SDS011;10921;53.614;9.882;2022-11-11T03:42:29;18.75;;;13.40;;
21519;SDS011;10921;53.614;9.882;2022-11-11T03:44:55;18.27;;;13.60;;
21519;SDS011;10921;53.614;9.882;2022-11-11T03:47:22;19.02;;;12.82;;
21519;SDS011;10921;53.614;9.882;2022-11-11T03:49:48;26.58;;;14.20;;
21519;SDS011;10921;53.614;9.882;2022-11-11T03:52:15;22.20;;;13.50;;
21519;SDS011;10921;53.614;9.882;2022-11-11T03:54:41;21.67;;;13.45;;
21519;SDS011;10921;53.614;9.882;2022-11-11T03:57:07;23.58;;;14.10;;
21519;SDS011;10921;53.614;9.882;2022-11-11T03:59:53;26.00;;;14.32;;
21519;SDS011;10921;53.614;9.882;2022-11-11T04:02:19;22.55;;;14.05;;
21519;SDS011;10921;53.614;9.882;2022-11-11T04:05:04;23.00;;;13.50;;
21519;SDS011;10921;53.614;9.882;2022-11-11T04:07:50;20.40;;;13.98;;
21519;SDS011;10921;53.614;9.882;2022-11-11T04:10:35;27.77;;;14.52;;
21519;SDS011;10921;53.614;9.882;2022-11-11T04:13:02;23.83;;;14.95;;
21519;SDS011;10921;53.614;9.882;2022-11-11T04:15:49;21.83;;;14.32;;
21519;SDS011;10921;53.614;9.882;2022-11-11T04:18:31;24.15;;;14.63;;
21519;SDS011;10921;53.614;9.882;2022-11-11T04:21:17;26.05;;;14.13;;
21519;SDS011;10921;53.614;9.882;2022-11-11T04:24:02;26.17;;;14.30;;
21519;SDS011;10921;53.614;9.882;2022-11-11T04:26:49;28.17;;;15.60;;
21519;SDS011;10921;53.614;9.882;2022-11-11T04:29:15;18.70;;;14.88;;
21519;SDS011;10921;53.614;9.882;2022-11-11T04:34:50;24.95;;;15.02;;
21519;SDS011;10921;53.614;9.882;2022-11-11T04:37:18;22.88;;;14.20;;
21519;SDS011;10921;53.614;9.882;2022-11-11T04:39:46;18.75;;;14.25;;
21519;SDS011;10921;53.614;9.882;2022-11-11T04:42:31;24.13;;;15.05;;
21519;SDS011;10921;53.614;9.882;2022-11-11T04:44:59;26.98;;;16.25;;
21519;SDS011;10921;53.614;9.882;2022-11-11T04:48:19;26.95;;;15.40;;
21519;SDS011;10921;53.614;9.882;2022-11-11T04:50:39;28.25;;;15.80;;
21519;SDS011;10921;53.614;9.882;2022-11-11T04:53:08;24.65;;;15.70;;
21519;SDS011;10921;53.614;9.882;2022-11-11T04:55:38;28.50;;;16.30;;
21519;SDS011;10921;53.614;9.882;2022-11-11T04:58:25;26.65;;;15.90;;
21519;SDS011;10921;53.614;9.882;2022-11-11T05:00:53;20.90;;;14.60;;
21519;SDS011;10921;53.614;9.882;2022-11-11T05:03:19;26.50;;;15.93;;
21519;SDS011;10921;53.614;9.882;2022-11-11T05:05:50;29.88;;;16.63;;
21519;SDS011;10921;53.614;9.882;2022-11-11T05:08:41;19.25;;;15.45;;
21519;SDS011;10921;53.614;9.882;2022-11-11T05:11:21;24.67;;;16.15;;
21519;SDS011;10921;53.614;9.882;2022-11-11T05:13:50;33.30;;;15.30;;
21519;SDS011;10921;53.614;9.882;2022-11-11T05:16:37;27.50;;;15.73;;
21519;SDS011;10921;53.614;9.882;2022-11-11T05:19:24;25.40;;;16.20;;
21519;SDS011;10921;53.614;9.882;2022-11-11T05:24:39;28.93;;;15.60;;
21519;SDS011;10921;53.614;9.882;2022-11-11T05:27:24;20.05;;;15.13;;
21519;SDS011;10921;53.614;9.882;2022-11-11T05:29:51;21.05;;;15.18;;
21519;SDS011;10921;53.614;9.882;2022-11-11T05:32:18;26.45;;;16.25;;
21519;SDS011;10921;53.614;9.882;2022-11-11T05:34:46;21.85;;;14.98;;
21519;SDS011;10921;53.614;9.882;2022-11-11T05:37:13;23.13;;;16.15;;
21519;SDS011;10921;53.614;9.882;2022-11-11T05:39:39;23.73;;;16.50;;
21519;SDS011;10921;53.614;9.882;2022-11-11T05:42:06;21.48;;;17.05;;
21519;SDS011;10921;53.614;9.882;2022-11-11T05:44:33;29.38;;;16.77;;
21519;SDS011;10921;53.614;9.882;2022-11-11T05:47:00;24.33;;;16.33;;
21519;SDS011;10921;53.614;9.882;2022-11-11T05:49:27;29.05;;;16.75;;
21519;SDS011;10921;53.614;9.882;2022-11-11T05:51:54;24.02;;;16.70;;
21519;SDS011;10921;53.614;9.882;2022-11-11T05:54:23;24.30;;;17.27;;
21519;SDS011;10921;53.614;9.882;2022-11-11T05:56:50;33.85;;;18.90;;
21519;SDS011;10921;53.614;9.882;2022-11-11T05:59:16;23.05;;;17.30;;
21519;SDS011;10921;53.614;9.882;2022-11-11T06:01:43;26.83;;;16.88;;
21519;SDS011;10921;53.614;9.882;2022-11-11T06:04:10;26.02;;;17.10;;
21519;SDS011;10921;53.614;9.882;2022-11-11T06:06:43;25.92;;;17.73;;
21519;SDS011;10921;53.614;9.882;2022-11-11T06:09:09;24.52;;;18.13;;
21519;SDS011;10921;53.614;9.882;2022-11-11T06:11:36;23.42;;;17.58;;
21519;SDS011;10921;53.614;9.882;2022-11-11T06:14:03;26.30;;;17.85;;
21519;SDS011;10921;53.614;9.882;2022-11-11T06:16:29;27.60;;;18.38;;
21519;SDS011;10921;53.614;9.882;2022-11-11T06:18:56;30.95;;;19.30;;
21519;SDS011;10921;53.614;9.882;2022-11-11T06:21:24;30.75;;;19.55;;
21519;SDS011;10921;53.614;9.882;2022-11-11T06:23:51;37.53;;;20.95;;
21519;SDS011;10921;53.614;9.882;2022-11-11T06:26:18;33.22;;;19.70;;
21519;SDS011;10921;53.614;9.882;2022-11-11T06:28:51;26.67;;;18.95;;
21519;SDS011;10921;53.614;9.882;2022-11-11T06:31:23;31.88;;;20.70;;
21519;SDS011;10921;53.614;9.882;2022-11-11T06:33:50;30.27;;;19.85;;
21519;SDS011;10921;53.614;9.882;2022-11-11T06:36:18;30.63;;;20.77;;
21519;SDS011;10921;53.614;9.882;2022-11-11T06:38:46;29.70;;;20.17;;
21519;SDS011;10921;53.614;9.882;2022-11-11T06:41:13;38.75;;;21.70;;
21519;SDS011;10921;53.614;9.882;2022-11-11T06:43:41;30.52;;;21.50;;
21519;SDS011;10921;53.614;9.882;2022-11-11T06:46:24;35.42;;;22.75;;
21519;SDS011;10921;53.614;9.882;2022-11-11T06:48:51;35.47;;;21.27;;
21519;SDS011;10921;53.614;9.882;2022-11-11T06:51:18;33.47;;;20.88;;
21519;SDS011;10921;53.614;9.882;2022-11-11T06:53:45;36.08;;;21.40;;
21519;SDS011;10921;53.614;9.882;2022-11-11T06:56:11;33.75;;;23.45;;
21519;SDS011;10921;53.614;9.882;2022-11-11T06:58:38;32.58;;;21.77;;
21519;SDS011;10921;53.614;9.882;2022-11-11T07:01:05;39.13;;;24.05;;
21519;SDS011;10921;53.614;9.882;2022-11-11T07:03:33;38.67;;;23.95;;
21519;SDS011;10921;53.614;9.882;2022-11-11T07:06:01;36.55;;;23.70;;
21519;SDS011;10921;53.614;9.882;2022-11-11T07:08:29;48.63;;;26.58;;
21519;SDS011;10921;53.614;9.882;2022-11-11T07:10:56;40.30;;;24.35;;
21519;SDS011;10921;53.614;9.882;2022-11-11T07:13:22;36.42;;;24.13;;
21519;SDS011;10921;53.614;9.882;2022-11-11T07:15:49;45.67;;;25.90;;
21519;SDS011;10921;53.614;9.882;2022-11-11T07:18:16;42.65;;;25.83;;
21519;SDS011;10921;53.614;9.882;2022-11-11T07:20:42;38.75;;;24.90;;
21519;SDS011;10921;53.614;9.882;2022-11-11T07:23:09;35.53;;;24.20;;
21519;SDS011;10921;53.614;9.882;2022-11-11T07:25:35;45.92;;;25.48;;
21519;SDS011;10921;53.614;9.882;2022-11-11T07:28:02;58.10;;;28.20;;
21519;SDS011;10921;53.614;9.882;2022-11-11T07:30:28;33.55;;;24.00;;
21519;SDS011;10921;53.614;9.882;2022-11-11T07:32:55;44.20;;;24.52;;
21519;SDS011;10921;53.614;9.882;2022-11-11T07:35:22;36.95;;;23.73;;
21519;SDS011;10921;53.614;9.882;2022-11-11T07:37:49;43.45;;;25.73;;
21519;SDS011;10921;53.614;9.882;2022-11-11T07:40:16;39.95;;;24.00;;
21519;SDS011;10921;53.614;9.882;2022-11-11T07:42:44;39.25;;;25.92;;
21519;SDS011;10921;53.614;9.882;2022-11-11T07:45:11;40.28;;;25.08;;
21519;SDS011;10921;53.614;9.882;2022-11-11T07:47:40;46.67;;;26.33;;
21519;SDS011;10921;53.614;9.882;2022-11-11T07:50:08;41.70;;;26.85;;
21519;SDS011;10921;53.614;9.882;2022-11-11T07:52:35;42.85;;;26.02;;
21519;SDS011;10921;53.614;9.882;2022-11-11T07:55:03;46.53;;;27.55;;
21519;SDS011;10921;53.614;9.882;2022-11-11T07:57:30;46.50;;;27.58;;
21519;SDS011;10921;53.614;9.882;2022-11-11T07:59:57;44.95;;;27.25;;
21519;SDS011;10921;53.614;9.882;2022-11-11T08:02:23;46.38;;;27.00;;
21519;SDS011;10921;53.614;9.882;2022-11-11T08:04:49;45.75;;;28.63;;
21519;SDS011;10921;53.614;9.882;2022-11-11T08:07:21;47.60;;;28.92;;
21519;SDS011;10921;53.614;9.882;2022-11-11T08:09:49;42.35;;;27.33;;
21519;SDS011;10921;53.614;9.882;2022-11-11T08:12:16;55.53;;;30.10;;
21519;SDS011;10921;53.614;9.882;2022-11-11T08:15:02;49.80;;;28.33;;
21519;SDS011;10921;53.614;9.882;2022-11-11T08:17:35;50.50;;;27.35;;
21519;SDS011;10921;53.614;9.882;2022-11-11T08:20:05;55.78;;;30.08;;
21519;SDS011;10921;53.614;9.882;2022-11-11T08:22:37;49.85;;;29.05;;
21519;SDS011;10921;53.614;9.882;2022-11-11T08:25:08;48.47;;;28.42;;
21519;SDS011;10921;53.614;9.882;2022-11-11T08:27:39;47.15;;;30.38;;
21519;SDS011;10921;53.614;9.882;2022-11-11T08:30:06;51.90;;;30.65;;
21519;SDS011;10921;53.614;9.882;2022-11-11T08:32:34;43.10;;;30.35;;
21519;SDS011;10921;53.614;9.882;2022-11-11T08:35:00;46.55;;;30.17;;
21519;SDS011;10921;53.614;9.882;2022-11-11T08:37:27;55.78;;;31.70;;
21519;SDS011;10921;53.614;9.882;2022-11-11T08:39:54;52.55;;;31.45;;
21519;SDS011;10921;53.614;9.882;2022-11-11T08:42:20;55.60;;;30.10;;
21519;SDS011;10921;53.614;9.882;2022-11-11T08:44:47;49.17;;;30.73;;
21519;SDS011;10921;53.614;9.882;2022-11-11T08:47:14;52.30;;;30.63;;
21519;SDS011;10921;53.614;9.882;2022-11-11T08:49:40;51.20;;;29.55;;
21519;SDS011;10921;53.614;9.882;2022-11-11T08:52:07;47.03;;;29.75;;
21519;SDS011;10921;53.614;9.882;2022-11-11T08:54:33;50.08;;;31.38;;
21519;SDS011;10921;53.614;9.882;2022-11-11T08:57:00;48.55;;;29.63;;
21519;SDS011;10921;53.614;9.882;2022-11-11T08:59:27;55.80;;;30.77;;
21519;SDS011;10921;53.614;9.882;2022-11-11T09:01:53;51.50;;;30.35;;
21519;SDS011;10921;53.614;9.882;2022-11-11T09:04:19;49.78;;;30.13;;
21519;SDS011;10921;53.614;9.882;2022-11-11T09:07:06;50.47;;;32.58;;
21519;SDS011;10921;53.614;9.882;2022-11-11T09:09:34;55.80;;;33.47;;
21519;SDS011;10921;53.614;9.882;2022-11-11T09:12:01;53.45;;;31.40;;
21519;SDS011;10921;53.614;9.882;2022-11-11T09:14:28;55.83;;;31.73;;
21519;SDS011;10921;53.614;9.882;2022-11-11T09:16:54;50.42;;;30.88;;
21519;SDS011;10921;53.614;9.882;2022-11-11T09:19:21;51.13;;;33.33;;
21519;SDS011;10921;53.614;9.882;2022-11-11T09:21:49;57.35;;;33.65;;
21519;SDS011;10921;53.614;9.882;2022-11-11T09:24:17;43.05;;;30.80;;
21519;SDS011;10921;53.614;9.882;2022-11-11T09:26:45;40.83;;;29.25;;
21519;SDS011;10921;53.614;9.882;2022-11-11T09:29:13;51.38;;;31.83;;
21519;SDS011;10921;53.614;9.882;2022-11-11T09:31:39;47.92;;;30.70;;
21519;SDS011;10921;53.614;9.882;2022-11-11T09:34:11;45.33;;;29.73;;
21519;SDS011;10921;53.614;9.882;2022-11-11T09:36:39;53.40;;;30.67;;
21519;SDS011;10921;53.614;9.882;2022-11-11T09:39:06;49.95;;;30.80;;
21519;SDS011;10921;53.614;9.882;2022-11-11T09:41:36;45.47;;;30.25;;
21519;SDS011;10921;53.614;9.882;2022-11-11T09:54:58;54.05;;;32.58;;
21519;SDS011;10921;53.614;9.882;2022-11-11T09:57:53;40.45;;;29.10;;
21519;SDS011;10921;53.614;9.882;2022-11-11T10:00:25;52.72;;;29.52;;
21519;SDS011;10921;53.614;9.882;2022-11-11T10:02:59;54.50;;;28.65;;
21519;SDS011;10921;53.614;9.882;2022-11-11T10:05:33;43.38;;;28.00;;
21519;SDS011;10921;53.614;9.882;2022-11-11T10:08:24;48.33;;;29.50;;
21519;SDS011;10921;53.614;9.882;2022-11-11T10:10:53;41.55;;;29.63;;
21519;SDS011;10921;53.614;9.882;2022-11-11T10:13:33;39.42;;;28.63;;
21519;SDS011;10921;53.614;9.882;2022-11-11T10:19:01;47.72;;;28.00;;
21519;SDS011;10921;53.614;9.882;2022-11-11T10:21:35;36.63;;;26.50;;
21519;SDS011;10921;53.614;9.882;2022-11-11T10:24:28;46.17;;;28.50;;
21519;SDS011;10921;53.614;9.882;2022-11-11T10:27:06;44.85;;;27.73;;
21519;SDS011;10921;53.614;9.882;2022-11-11T10:29:42;43.47;;;28.67;;
21519;SDS011;10921;53.614;9.882;2022-11-11T10:40:33;43.40;;;27.50;;
21519;SDS011;10921;53.614;9.882;2022-11-11T10:43:11;47.92;;;29.50;;
21519;SDS011;10921;53.614;9.882;2022-11-11T10:45:49;42.65;;;29.52;;
21519;SDS011;10921;53.614;9.882;2022-11-11T10:48:18;47.78;;;28.50;;
21519;SDS011;10921;53.614;9.882;2022-11-11T10:50:55;37.47;;;27.00;;
21519;SDS011;10921;53.614;9.882;2022-11-11T10:56:05;45.33;;;27.85;;
21519;SDS011;10921;53.614;9.882;2022-11-11T10:58:40;40.85;;;27.20;;
21519;SDS011;10921;53.614;9.882;2022-11-11T11:01:15;42.13;;;28.23;;
21519;SDS011;10921;53.614;9.882;2022-11-11T11:06:41;39.95;;;25.50;;
21519;SDS011;10921;53.614;9.882;2022-11-11T11:09:26;39.28;;;26.48;;
21519;SDS011;10921;53.614;9.882;2022-11-11T11:15:02;46.45;;;27.45;;
21519;SDS011;10921;53.614;9.882;2022-11-11T11:17:38;41.08;;;26.50;;
21519;SDS011;10921;53.614;9.882;2022-11-11T11:20:26;39.30;;;27.63;;
21519;SDS011;10921;53.614;9.882;2022-11-11T11:22:53;37.60;;;26.27;;
21519;SDS011;10921;53.614;9.882;2022-11-11T11:25:25;41.38;;;27.20;;
21519;SDS011;10921;53.614;9.882;2022-11-11T11:28:12;41.15;;;26.52;;
21519;SDS011;10921;53.614;9.882;2022-11-11T11:30:39;42.45;;;28.35;;
21519;SDS011;10921;53.614;9.882;2022-11-11T11:33:24;40.05;;;27.65;;
21519;SDS011;10921;53.614;9.882;2022-11-11T11:35:50;46.47;;;27.67;;
21519;SDS011;10921;53.614;9.882;2022-11-11T11:38:17;39.55;;;26.40;;
21519;SDS011;10921;53.614;9.882;2022-11-11T11:40:48;43.25;;;27.77;;
21519;SDS011;10921;53.614;9.882;2022-11-11T11:43:35;37.88;;;27.63;;
21519;SDS011;10921;53.614;9.882;2022-11-11T11:46:19;43.40;;;25.73;;
21519;SDS011;10921;53.614;9.882;2022-11-11T11:52:18;44.92;;;29.20;;
21519;SDS011;10921;53.614;9.882;2022-11-11T12:05:42;41.35;;;26.50;;
21519;SDS011;10921;53.614;9.882;2022-11-11T12:08:18;39.08;;;27.27;;
21519;SDS011;10921;53.614;9.882;2022-11-11T12:11:01;44.85;;;27.95;;
21519;SDS011;10921;53.614;9.882;2022-11-11T12:16:25;36.28;;;27.45;;
21519;SDS011;10921;53.614;9.882;2022-11-11T12:30:46;46.13;;;29.77;;
21519;SDS011;10921;53.614;9.882;2022-11-11T12:41:59;33.90;;;26.38;;
21519;SDS011;10921;53.614;9.882;2022-11-11T12:44:47;39.50;;;27.48;;
21519;SDS011;10921;53.614;9.882;2022-11-11T12:50:12;41.58;;;29.33;;
21519;SDS011;10921;53.614;9.882;2022-11-11T13:04:23;37.13;;;26.73;;
21519;SDS011;10921;53.614;9.882;2022-11-11T13:07:05;36.55;;;25.35;;
21519;SDS011;10921;53.614;9.882;2022-11-11T13:15:40;34.28;;;25.70;;
21519;SDS011;10921;53.614;9.882;2022-11-11T13:18:11;35.53;;;25.10;;
21519;SDS011;10921;53.614;9.882;2022-11-11T13:23:11;39.58;;;24.73;;
21519;SDS011;10921;53.614;9.882;2022-11-11T13:25:39;35.15;;;26.58;;
21519;SDS011;10921;53.614;9.882;2022-11-11T13:28:19;31.73;;;24.38;;
21519;SDS011;10921;53.614;9.882;2022-11-11T13:30:55;33.15;;;26.05;;
21519;SDS011;10921;53.614;9.882;2022-11-11T13:33:37;39.50;;;25.25;;
21519;SDS011;10921;53.614;9.882;2022-11-11T13:36:09;31.88;;;25.40;;
21519;SDS011;10921;53.614;9.882;2022-11-11T13:38:56;33.63;;;24.90;;
21519;SDS011;10921;53.614;9.882;2022-11-11T13:41:26;33.45;;;25.10;;
21519;SDS011;10921;53.614;9.882;2022-11-11T13:43:57;29.13;;;22.92;;
21519;SDS011;10921;53.614;9.882;2022-11-11T13:46:40;34.28;;;24.42;;
21519;SDS011;10921;53.614;9.882;2022-11-11T13:52:37;29.40;;;23.52;;
21519;SDS011;10921;53.614;9.882;2022-11-11T13:55:04;54.50;;;25.97;;
21519;SDS011;10921;53.614;9.882;2022-11-11T13:57:33;28.55;;;22.17;;
21519;SDS011;10921;53.614;9.882;2022-11-11T14:02:46;28.10;;;22.27;;
21519;SDS011;10921;53.614;9.882;2022-11-11T14:05:14;32.17;;;22.77;;
21519;SDS011;10921;53.614;9.882;2022-11-11T14:10:09;32.05;;;22.45;;
21519;SDS011;10921;53.614;9.882;2022-11-11T14:12:56;26.25;;;22.10;;
21519;SDS011;10921;53.614;9.882;2022-11-11T14:15:43;25.88;;;20.13;;
21519;SDS011;10921;53.614;9.882;2022-11-11T14:20:48;29.38;;;20.52;;
21519;SDS011;10921;53.614;9.882;2022-11-11T14:31:28;27.38;;;20.42;;
21519;SDS011;10921;53.614;9.882;2022-11-11T14:34:23;25.75;;;21.25;;
21519;SDS011;10921;53.614;9.882;2022-11-11T14:37:14;27.83;;;20.92;;
21519;SDS011;10921;53.614;9.882;2022-11-11T14:39:51;25.60;;;20.55;;
21519;SDS011;10921;53.614;9.882;2022-11-11T14:44:59;26.83;;;20.33;;
21519;SDS011;10921;53.614;9.882;2022-11-11T14:47:31;26.13;;;21.30;;
21519;SDS011;10921;53.614;9.882;2022-11-11T14:52:50;25.23;;;21.25;;
21519;SDS011;10921;53.614;9.882;2022-11-11T14:55:20;28.02;;;19.83;;
21519;SDS011;10921;53.614;9.882;2022-11-11T15:00:42;23.45;;;20.10;;
21519;SDS011;10921;53.614;9.882;2022-11-11T15:03:30;25.27;;;19.77;;
21519;SDS011;10921;53.614;9.882;2022-11-11T15:08:48;28.02;;;21.73;;
21519;SDS011;10921;53.614;9.882;2022-11-11T15:11:42;24.92;;;20.73;;
21519;SDS011;10921;53.614;9.882;2022-11-11T15:27:42;27.48;;;20.67;;
21519;SDS011;10921;53.614;9.882;2022-11-11T15:30:19;24.10;;;21.45;;
21519;SDS011;10921;53.614;9.882;2022-11-11T15:35:26;31.63;;;22.02;;
21519;SDS011;10921;53.614;9.882;2022-11-11T15:37:59;26.25;;;20.75;;
21519;SDS011;10921;53.614;9.882;2022-11-11T15:40:30;27.25;;;21.88;;
21519;SDS011;10921;53.614;9.882;2022-11-11T15:43:27;23.98;;;20.33;;
21519;SDS011;10921;53.614;9.882;2022-11-11T15:45:57;29.55;;;21.17;;
21519;SDS011;10921;53.614;9.882;2022-11-11T15:50:56;20.90;;;18.42;;
21519;SDS011;10921;53.614;9.882;2022-11-11T15:53:24;28.33;;;21.80;;
21519;SDS011;10921;53.614;9.882;2022-11-11T15:55:53;28.75;;;21.23;;
21519;SDS011;10921;53.614;9.882;2022-11-11T15:58:29;28.88;;;21.33;;
21519;SDS011;10921;53.614;9.882;2022-11-11T16:00:57;25.20;;;19.88;;
21519;SDS011;10921;53.614;9.882;2022-11-11T16:03:33;29.05;;;20.60;;
21519;SDS011;10921;53.614;9.882;2022-11-11T16:06:12;29.98;;;21.08;;
21519;SDS011;10921;53.614;9.882;2022-11-11T16:08:41;32.72;;;22.20;;
21519;SDS011;10921;53.614;9.882;2022-11-11T16:11:12;30.67;;;21.93;;
21519;SDS011;10921;53.614;9.882;2022-11-11T16:13:41;29.48;;;21.95;;
21519;SDS011;10921;53.614;9.882;2022-11-11T16:16:19;27.98;;;22.17;;
21519;SDS011;10921;53.614;9.882;2022-11-11T16:18:49;30.80;;;21.95;;
21519;SDS011;10921;53.614;9.882;2022-11-11T16:21:22;31.55;;;24.80;;
21519;SDS011;10921;53.614;9.882;2022-11-11T16:23:55;38.58;;;30.80;;
21519;SDS011;10921;53.614;9.882;2022-11-11T16:26:23;31.95;;;24.33;;
21519;SDS011;10921;53.614;9.882;2022-11-11T16:28:54;74.40;;;65.85;;
21519;SDS011;10921;53.614;9.882;2022-11-11T16:31:36;46.22;;;38.53;;
21519;SDS011;10921;53.614;9.882;2022-11-11T16:37:00;30.52;;;25.65;;
21519;SDS011;10921;53.614;9.882;2022-11-11T16:39:28;32.50;;;23.83;;
21519;SDS011;10921;53.614;9.882;2022-11-11T16:41:56;31.67;;;24.90;;
21519;SDS011;10921;53.614;9.882;2022-11-11T16:44:47;68.97;;;60.88;;
21519;SDS011;10921;53.614;9.882;2022-11-11T16:48:00;43.70;;;32.67;;
21519;SDS011;10921;53.614;9.882;2022-11-11T16:52:49;30.63;;;25.33;;
21519;SDS011;10921;53.614;9.882;2022-11-11T16:58:20;38.10;;;27.15;;
21519;SDS011;10921;53.614;9.882;2022-11-11T17:00:50;33.45;;;25.63;;
21519;SDS011;10921;53.614;9.882;2022-11-11T17:03:26;35.30;;;26.92;;
21519;SDS011;10921;53.614;9.882;2022-11-11T17:05:55;76.65;;;51.20;;
21519;SDS011;10921;53.614;9.882;2022-11-11T17:08:40;39.88;;;30.00;;
21519;SDS011;10921;53.614;9.882;2022-11-11T17:11:09;40.38;;;30.50;;
21519;SDS011;10921;53.614;9.882;2022-11-11T17:13:56;39.75;;;29.20;;
21519;SDS011;10921;53.614;9.882;2022-11-11T17:16:26;53.95;;;36.58;;
21519;SDS011;10921;53.614;9.882;2022-11-11T17:21:20;41.97;;;30.65;;
21519;SDS011;10921;53.614;9.882;2022-11-11T17:23:46;298.13;;;135.05;;
21519;SDS011;10921;53.614;9.882;2022-11-11T17:26:13;146.25;;;70.43;;
21519;SDS011;10921;53.614;9.882;2022-11-11T17:28:40;95.65;;;52.35;;
21519;SDS011;10921;53.614;9.882;2022-11-11T17:31:07;54.75;;;37.38;;
21519;SDS011;10921;53.614;9.882;2022-11-11T17:33:35;46.97;;;30.88;;
21519;SDS011;10921;53.614;9.882;2022-11-11T17:36:02;37.97;;;28.63;;